CHX3 EDDK-EDKL
Flight info
| Callsign | CHX3 |
|---|---|
| Flight time | 0h -4m |
| Altitude | |
| Route | |
| Aircraft | EC45 |
Departure
| Time | 2026-04-16 14:07 |
|---|---|
| Airport | Cologne Bonn Airport (EDDK) |
Arrival
| Time | 2026-04-16 14:03 |
|---|---|
| Airport | Leverkusen Airfield (EDKL) |
| Time | Latitude | Longitude | Altitude | Speed | Heading |
|---|---|---|---|---|---|
| 2026-04-16 14:03 | 50.87248 | 7.12159 | 229 ft | 0 kts | 136° |
| 2026-04-16 14:03 | 50.87247 | 7.12159 | 229 ft | 0 kts | 134° |
| 2026-04-16 14:04 | 50.87244 | 7.12165 | 229 ft | 0 kts | 140° |
| 2026-04-16 14:04 | 50.87230 | 7.12187 | 236 ft | 6 kts | 147° |
| 2026-04-16 14:05 | 50.87215 | 7.12212 | 233 ft | 1 kts | 154° |
| 2026-04-16 14:05 | 50.87214 | 7.12213 | 230 ft | 0 kts | 152° |
| 2026-04-16 14:05 | 50.87200 | 7.12235 | 231 ft | 12 kts | 184° |
| 2026-04-16 14:05 | 50.87138 | 7.12213 | 237 ft | 4 kts | 240° |
| 2026-04-16 14:06 | 50.87128 | 7.12205 | 236 ft | 5 kts | 243° |
| 2026-04-16 14:06 | 50.87078 | 7.12121 | 239 ft | 10 kts | 273° |
| 2026-04-16 14:06 | 50.87131 | 7.12006 | 311 ft | 35 kts | 298° |
| 2026-04-16 14:06 | 50.87346 | 7.11374 | 498 ft | 90 kts | 296° |
| 2026-04-16 14:07 | 50.87677 | 7.10319 | 491 ft | 117 kts | 289° |
| 2026-04-16 14:07 | 50.87986 | 7.09161 | 651 ft | 112 kts | 293° |
| 2026-04-16 14:07 | 50.88391 | 7.08013 | 764 ft | 115 kts | 298° |
| 2026-04-16 14:07 | 50.88781 | 7.07004 | 938 ft | 115 kts | 301° |
| 2026-04-16 14:08 | 50.89235 | 7.05914 | 1112 ft | 117 kts | 302° |
| 2026-04-16 14:08 | 50.89680 | 7.04840 | 1123 ft | 117 kts | 300° |
| 2026-04-16 14:08 | 50.90108 | 7.03775 | 1202 ft | 110 kts | 298° |
| 2026-04-16 14:08 | 50.90526 | 7.02721 | 1216 ft | 116 kts | 297° |
| 2026-04-16 14:09 | 50.90504 | 7.01572 | 1324 ft | 107 kts | 250° |
| 2026-04-16 14:09 | 50.90231 | 7.00459 | 1235 ft | 108 kts | 244° |
| 2026-04-16 14:09 | 50.90029 | 6.99311 | 1137 ft | 108 kts | 275° |
| 2026-04-16 14:09 | 50.90361 | 6.98335 | 1128 ft | 102 kts | 321° |
| 2026-04-16 14:10 | 50.90787 | 6.97913 | 1088 ft | 105 kts | 326° |
| 2026-04-16 14:10 | 50.91376 | 6.97391 | 1027 ft | 111 kts | 329° |
| 2026-04-16 14:11 | 50.92070 | 6.96770 | 988 ft | 113 kts | 329° |
| 2026-04-16 14:11 | 50.92729 | 6.96244 | 1184 ft | 101 kts | 332° |
| 2026-04-16 14:11 | 50.93345 | 6.95807 | 1305 ft | 95 kts | 333° |
| 2026-04-16 14:11 | 50.94000 | 6.95380 | 1273 ft | 104 kts | 335° |
| 2026-04-16 14:12 | 50.94680 | 6.95008 | 1348 ft | 102 kts | 336° |
| 2026-04-16 14:12 | 50.95297 | 6.94484 | 1419 ft | 102 kts | 325° |
| 2026-04-16 14:12 | 50.95926 | 6.93896 | 1429 ft | 107 kts | 321° |
| 2026-04-16 14:12 | 50.96560 | 6.93235 | 1436 ft | 110 kts | 323° |
| 2026-04-16 14:13 | 50.97203 | 6.92559 | 1453 ft | 111 kts | 318° |
| 2026-04-16 14:13 | 50.97792 | 6.91758 | 1448 ft | 111 kts | 314° |
| 2026-04-16 14:13 | 50.98365 | 6.90958 | 1432 ft | 108 kts | 313° |
| 2026-04-16 14:13 | 50.98896 | 6.90135 | 1404 ft | 103 kts | 314° |
| 2026-04-16 14:14 | 50.99373 | 6.89341 | 1388 ft | 93 kts | 321° |
| 2026-04-16 14:14 | 50.99831 | 6.89248 | 1591 ft | 63 kts | 72° |
| 2026-04-16 14:14 | 51.00333 | 6.89770 | 1285 ft | 100 kts | 40° |
| 2026-04-16 14:14 | 51.00872 | 6.90465 | 1129 ft | 104 kts | 42° |
| 2026-04-16 14:15 | 51.01329 | 6.91410 | 967 ft | 112 kts | 56° |
| 2026-04-16 14:15 | 51.01704 | 6.92422 | 1052 ft | 101 kts | 53° |
| 2026-04-16 14:15 | 51.02102 | 6.93282 | 1035 ft | 93 kts | 50° |
| 2026-04-16 14:15 | 51.02484 | 6.94069 | 1026 ft | 88 kts | 50° |
| 2026-04-16 14:16 | 51.02831 | 6.94835 | 1023 ft | 85 kts | 52° |
| 2026-04-16 14:16 | 51.03157 | 6.95619 | 966 ft | 90 kts | 54° |
| 2026-04-16 14:16 | 51.03486 | 6.96566 | 812 ft | 102 kts | 68° |
| 2026-04-16 14:16 | 51.03626 | 6.97686 | 730 ft | 105 kts | 81° |
| 2026-04-16 14:17 | 51.03450 | 6.98768 | 616 ft | 108 kts | 141° |
| 2026-04-16 14:17 | 51.02823 | 6.99420 | 537 ft | 108 kts | 150° |
| 2026-04-16 14:17 | 51.02220 | 6.99995 | 382 ft | 87 kts | 144° |
| 2026-04-16 14:17 | 51.01793 | 7.00372 | 198 ft | 56 kts | 149° |
| 2026-04-16 14:18 | 51.01485 | 7.00644 | 191 ft | 59 kts | 153° |
| 2026-04-16 14:18 | 51.01058 | 7.01041 | 257 ft | 72 kts | 140° |
| 2026-04-16 14:18 | 51.01131 | 7.01665 | 536 ft | 64 kts | 62° |
| 2026-04-16 14:18 | 51.01543 | 7.02125 | 559 ft | 86 kts | 356° |
| 2026-04-16 14:19 | 51.02105 | 7.01645 | 570 ft | 95 kts | 327° |
| 2026-04-16 14:19 | 51.02699 | 7.01137 | 585 ft | 100 kts | 328° |
| 2026-04-16 14:19 | 51.03182 | 7.00366 | 571 ft | 104 kts | 274° |
| 2026-04-16 14:19 | 51.02905 | 6.99487 | 506 ft | 95 kts | 195° |
| 2026-04-16 14:20 | 51.02276 | 6.99893 | 380 ft | 103 kts | 148° |
| 2026-04-16 14:20 | 51.01753 | 7.00528 | 241 ft | 73 kts | 174° |
| 2026-04-16 14:20 | 51.01655 | 7.00721 | 164 ft | 14 kts | 252° |
| 2026-04-16 14:20 | 51.01649 | 7.00730 | 162 ft | 0 kts | 236° |
| 2026-04-16 14:21 | 51.01530 | 7.00663 | 190 ft | 57 kts | 165° |
| 2026-04-16 14:21 | 51.00980 | 7.01093 | 322 ft | 105 kts | 148° |
| 2026-04-16 14:21 | 51.00886 | 7.02007 | 869 ft | 94 kts | 82° |
| 2026-04-16 14:21 | 51.01300 | 7.02824 | 734 ft | 131 kts | 343° |
| 2026-04-16 14:22 | 51.02176 | 7.02229 | 736 ft | 136 kts | 335° |
| 2026-04-16 14:22 | 51.03026 | 7.01641 | 721 ft | 128 kts | 328° |
| 2026-04-16 14:22 | 51.03002 | 7.00531 | 608 ft | 104 kts | 238° |
| 2026-04-16 14:22 | 51.02497 | 6.99837 | 463 ft | 104 kts | 150° |
| 2026-04-16 14:23 | 51.02076 | 7.00425 | 614 ft | 70 kts | 208° |
| 2026-04-16 14:23 | 51.01687 | 7.00104 | 555 ft | 71 kts | 239° |
| 2026-04-16 14:23 | 51.01783 | 6.99472 | 433 ft | 62 kts | 23° |
| 2026-04-16 14:23 | 51.01764 | 6.99682 | 240 ft | 35 kts | 289° |
| 2026-04-16 14:24 | 51.01798 | 6.99622 | 179 ft | 18 kts | 174° |
| 2026-04-16 14:24 | 51.01766 | 6.99634 | 148 ft | 0 kts | 177° |
| 2026-04-16 14:25 | 51.01760 | 6.99633 | 152 ft | 4 kts | 177° |
| 2026-04-16 14:25 | 51.01694 | 6.99778 | 355 ft | 48 kts | 73° |
| 2026-04-16 14:25 | 51.02163 | 6.99813 | 574 ft | 101 kts | 318° |
| 2026-04-16 14:25 | 51.02689 | 6.98887 | 640 ft | 126 kts | 306° |
| 2026-04-16 14:26 | 51.03194 | 6.97770 | 758 ft | 114 kts | 297° |
| 2026-04-16 14:26 | 51.03364 | 6.96652 | 813 ft | 103 kts | 258° |
| 2026-04-16 14:26 | 51.03059 | 6.95664 | 777 ft | 100 kts | 236° |
| 2026-04-16 14:26 | 51.02636 | 6.94750 | 658 ft | 106 kts | 229° |
| 2026-04-16 14:27 | 51.02178 | 6.93791 | 501 ft | 112 kts | 233° |
| 2026-04-16 14:27 | 51.01802 | 6.92770 | 600 ft | 101 kts | 234° |
| 2026-04-16 14:27 | 51.01371 | 6.91849 | 590 ft | 110 kts | 224° |
| 2026-04-16 14:27 | 51.00808 | 6.90962 | 532 ft | 118 kts | 221° |
| 2026-04-16 14:28 | 51.00298 | 6.90302 | 729 ft | 74 kts | 215° |
| 2026-04-16 14:28 | 50.99875 | 6.89824 | 878 ft | 79 kts | 219° |
| 2026-04-16 14:28 | 50.99537 | 6.89125 | 974 ft | 83 kts | 262° |
| 2026-04-16 14:28 | 50.99828 | 6.88638 | 1268 ft | 66 kts | 16° |
| 2026-04-16 14:29 | 50.99986 | 6.89297 | 1325 ft | 75 kts | 140° |
| 2026-04-16 14:29 | 50.99570 | 6.89229 | 1205 ft | 87 kts | 244° |
| 2026-04-16 14:29 | 50.99769 | 6.88418 | 1026 ft | 84 kts | 355° |
| 2026-04-16 14:29 | 51.00036 | 6.88900 | 1032 ft | 71 kts | 149° |
| 2026-04-16 14:30 | 50.99578 | 6.89370 | 997 ft | 87 kts | 156° |
| 2026-04-16 14:30 | 50.98983 | 6.89721 | 1004 ft | 96 kts | 161° |
| 2026-04-16 14:30 | 50.98319 | 6.90011 | 1021 ft | 101 kts | 165° |
| 2026-04-16 14:30 | 50.97616 | 6.90237 | 1034 ft | 105 kts | 162° |
| 2026-04-16 14:31 | 50.96929 | 6.90714 | 1058 ft | 109 kts | 143° |
| 2026-04-16 14:31 | 50.96294 | 6.91454 | 968 ft | 117 kts | 137° |
| 2026-04-16 14:31 | 50.95684 | 6.92247 | 971 ft | 119 kts | 138° |
| 2026-04-16 14:31 | 50.95031 | 6.93107 | 1017 ft | 123 kts | 142° |
| 2026-04-16 14:32 | 50.94399 | 6.93838 | 1221 ft | 111 kts | 143° |
| 2026-04-16 14:32 | 50.93756 | 6.94536 | 1278 ft | 110 kts | 147° |
| 2026-04-16 14:32 | 50.93125 | 6.95186 | 1346 ft | 107 kts | 146° |
| 2026-04-16 14:32 | 50.92526 | 6.95885 | 1294 ft | 105 kts | 140° |
| 2026-04-16 14:33 | 50.91951 | 6.96590 | 1133 ft | 103 kts | 140° |
| 2026-04-16 14:33 | 50.91380 | 6.97276 | 1001 ft | 103 kts | 143° |
| 2026-04-16 14:33 | 50.90794 | 6.97931 | 918 ft | 104 kts | 142° |
| 2026-04-16 14:33 | 50.90212 | 6.98629 | 1090 ft | 103 kts | 136° |
| 2026-04-16 14:34 | 50.89779 | 6.99551 | 1082 ft | 106 kts | 107° |
| 2026-04-16 14:34 | 50.89631 | 7.00762 | 934 ft | 119 kts | 97° |
| 2026-04-16 14:34 | 50.89501 | 7.02120 | 807 ft | 128 kts | 97° |
| 2026-04-16 14:34 | 50.89425 | 7.03462 | 896 ft | 115 kts | 93° |
| 2026-04-16 14:35 | 50.89350 | 7.04659 | 1028 ft | 97 kts | 96° |
| 2026-04-16 14:35 | 50.89266 | 7.05750 | 1053 ft | 106 kts | 99° |
| 2026-04-16 14:35 | 50.89071 | 7.06930 | 962 ft | 115 kts | 108° |
| 2026-04-16 14:35 | 50.88873 | 7.08146 | 916 ft | 109 kts | 104° |
| 2026-04-16 14:36 | 50.88658 | 7.09225 | 838 ft | 98 kts | 127° |
| 2026-04-16 14:36 | 50.88354 | 7.10123 | 796 ft | 89 kts | 141° |
| 2026-04-16 14:36 | 50.87957 | 7.10817 | 743 ft | 78 kts | 135° |
| 2026-04-16 14:36 | 50.87595 | 7.11363 | 560 ft | 70 kts | 135° |
| 2026-04-16 14:37 | 50.87324 | 7.11762 | 434 ft | 42 kts | 134° |
| 2026-04-16 14:37 | 50.87131 | 7.12043 | 325 ft | 25 kts | 131° |
| 2026-04-16 14:37 | 50.87108 | 7.12165 | 242 ft | 10 kts | 61° |
| 2026-04-16 14:37 | 50.87158 | 7.12231 | 244 ft | 15 kts | 20° |
| 2026-04-16 14:38 | 50.87272 | 7.12182 | 242 ft | 22 kts | 323° |
| 2026-04-16 14:38 | 50.87318 | 7.12147 | 249 ft | 3 kts | 147° |
| 2026-04-16 14:38 | 50.87320 | 7.12138 | 237 ft | 3 kts | 145° |
| 2026-04-16 14:38 | 50.87321 | 7.12138 | 234 ft | 0 kts | 145° |